Time;durP1;ratioP1;P1;durP2;ratioP2;P2;SDS_P1;SDS_P2;PMS_P1;PMS_P2;Temp;Humidity;BMP_temperature;BMP_pressure;BME280_temperature;BME280_humidity;BME280_pressure;Samples;Min_cycle;Max_cycle;Signal;HPM_P1;HPM_P2
2022/10/29 00:01:46;;;;;;;0.55;0.55;;;;;;;10.09;100.00;100315.75;5022973;28;20026;-78
2022/10/29 00:04:12;;;;;;;0.73;0.73;;;;;;;10.09;100.00;100320.31;4989390;28;20467;-79
2022/10/29 00:06:37;;;;;;;0.70;0.70;;;;;;;10.10;100.00;100325.47;5006317;28;20037;-79
2022/10/29 00:09:04;;;;;;;3.97;1.38;;;;;;;10.05;100.00;100314.44;4991256;28;20053;-78
2022/10/29 00:11:30;;;;;;;2.90;1.10;;;;;;;10.18;100.00;100313.00;5019807;28;20248;-77
2022/10/29 00:13:58;;;;;;;0.30;0.30;;;;;;;10.25;100.00;100311.25;5023347;28;20033;-77
2022/10/29 00:16:27;;;;;;;0.30;0.30;;;;;;;10.25;100.00;100314.75;4990847;28;20057;-77
2022/10/29 00:18:53;;;;;;;0.85;0.85;;;;;;;10.26;100.00;100318.28;5010346;28;20037;-77
2022/10/29 00:21:22;;;;;;;0.30;0.30;;;;;;;10.30;100.00;100317.75;4987920;28;20373;-77
2022/10/29 00:23:49;;;;;;;0.30;0.30;;;;;;;10.34;100.00;100297.53;5019613;28;20030;-77
2022/10/29 00:26:15;;;;;;;0.32;0.32;;;;;;;10.39;100.00;100299.69;5024441;28;20053;-78
2022/10/29 00:28:41;;;;;;;0.30;0.30;;;;;;;10.50;100.00;100304.56;4994898;28;20091;-77
2022/10/29 00:31:15;;;;;;;1.35;0.52;;;;;;;10.56;100.00;100292.28;4982425;28;20037;-79
2022/10/29 00:33:44;;;;;;;1.02;1.02;;;;;;;10.62;100.00;100290.69;5024806;28;20402;-77
2022/10/29 00:36:12;;;;;;;0.82;0.82;;;;;;;10.77;100.00;100288.81;5011261;28;20118;-78
2022/10/29 00:38:38;;;;;;;0.73;0.73;;;;;;;10.75;100.00;100277.41;5036165;28;20033;-77
2022/10/29 00:41:05;;;;;;;0.40;0.40;;;;;;;10.70;100.00;100277.97;4988237;28;20037;-78
2022/10/29 00:43:36;;;;;;;0.43;0.43;;;;;;;10.57;100.00;100259.81;5021969;28;20431;-77
2022/10/29 00:46:04;;;;;;;0.40;0.40;;;;;;;10.60;100.00;100261.28;4990957;28;20391;-76
2022/10/29 00:48:33;;;;;;;0.40;0.40;;;;;;;10.62;100.00;100283.44;5027703;28;20104;-77
2022/10/29 00:51:02;;;;;;;0.40;0.40;;;;;;;10.56;100.00;100270.75;5005348;28;20068;-76
2022/10/29 00:53:30;;;;;;;0.40;0.40;;;;;;;10.57;100.00;100277.78;5007994;28;20025;-76
2022/10/29 00:55:57;;;;;;;1.05;1.02;;;;;;;10.50;100.00;100263.44;5002150;28;20036;-78
2022/10/29 00:58:22;;;;;;;0.75;0.75;;;;;;;10.53;100.00;100271.13;5007322;28;20037;-76
2022/10/29 01:00:48;;;;;;;0.30;0.30;;;;;;;10.49;100.00;100261.78;5006595;28;20037;-78
2022/10/29 01:03:14;;;;;;;0.30;0.30;;;;;;;10.43;100.00;100241.84;5024902;28;20520;-79
2022/10/29 01:05:39;;;;;;;3.60;1.40;;;;;;;10.36;100.00;100237.41;5025807;28;20096;-77
2022/10/29 01:08:05;;;;;;;0.43;0.43;;;;;;;10.34;100.00;100233.03;4990261;28;20034;-78
2022/10/29 01:10:42;;;;;;;1.75;1.65;;;;;;;10.33;100.00;100231.38;4988895;28;20044;-79
2022/10/29 01:13:19;;;;;;;0.50;0.50;;;;;;;10.36;100.00;100235.56;5023718;28;20045;-77
2022/10/29 01:16:20;;;;;;;2.95;0.70;;;;;;;10.34;100.00;100234.91;5028092;28;20038;-78
2022/10/29 01:18:54;;;;;;;0.32;0.32;;;;;;;10.24;100.00;100218.19;5016857;28;20491;-78
2022/10/29 01:21:44;;;;;;;3.22;0.70;;;;;;;10.32;100.00;100223.53;5037973;28;20522;-80
2022/10/29 01:24:23;;;;;;;0.60;0.60;;;;;;;10.43;100.00;100222.22;5026133;28;20037;-78
2022/10/29 01:27:17;;;;;;;0.85;0.65;;;;;;;10.50;100.00;100218.56;5023631;28;20030;-77
2022/10/29 01:30:04;;;;;;;0.98;0.65;;;;;;;10.52;100.00;100213.00;5025535;28;20068;-76
2022/10/29 01:32:49;;;;;;;1.35;1.27;;;;;;;10.49;100.00;100214.22;5013441;28;20033;-76
2022/10/29 01:35:39;;;;;;;0.47;0.47;;;;;;;10.49;100.00;100200.78;5026388;28;20566;-77
2022/10/29 01:38:04;;;;;;;0.40;0.40;;;;;;;10.49;100.00;100187.34;5012281;28;20037;-77
2022/10/29 01:40:57;;;;;;;3.83;1.05;;;;;;;10.56;100.00;100195.50;5028598;28;20361;-78
2022/10/29 01:43:45;;;;;;;0.93;0.90;;;;;;;10.65;100.00;100206.97;5008782;28;20053;-78
2022/10/29 01:46:16;;;;;;;3.33;1.77;;;;;;;10.64;100.00;100205.28;5020840;28;20084;-79
2022/10/29 01:48:47;;;;;;;1.83;1.73;;;;;;;10.60;100.00;100199.44;5023095;28;20041;-78
2022/10/29 01:51:20;;;;;;;1.92;1.42;;;;;;;10.64;100.00;100195.38;5026023;28;20061;-77
2022/10/29 01:53:46;;;;;;;2.22;1.67;;;;;;;10.66;100.00;100185.25;4993472;28;20099;-80
2022/10/29 01:56:11;;;;;;;2.50;1.20;;;;;;;10.66;100.00;100187.94;5008505;28;20438;-76
2022/10/29 01:58:38;;;;;;;1.65;1.48;;;;;;;10.63;100.00;100182.94;5004026;28;20064;-78
2022/10/29 02:01:22;;;;;;;2.17;1.75;;;;;;;10.66;100.00;100174.47;5003289;28;20065;-78
2022/10/29 02:03:57;;;;;;;12.60;1.88;;;;;;;10.70;100.00;100180.34;5005841;28;20048;-79
2022/10/29 02:06:34;;;;;;;1.73;1.50;;;;;;;10.59;100.00;100153.97;5029009;28;20092;-78
2022/10/29 02:09:21;;;;;;;8.43;1.30;;;;;;;10.60;100.00;100144.84;5008175;28;20053;-77
2022/10/29 02:12:07;;;;;;;21.33;3.70;;;;;;;10.66;100.00;100141.41;4991763;28;20493;-77
2022/10/29 02:14:40;;;;;;;8.60;2.88;;;;;;;10.63;100.00;100150.66;5021624;28;20124;-78
2022/10/29 02:17:05;;;;;;;4.07;2.50;;;;;;;10.55;100.00;100129.28;5003750;28;20483;-77
2022/10/29 02:19:33;;;;;;;4.50;2.63;;;;;;;10.69;100.00;100143.69;5024291;28;20068;-78
2022/10/29 02:21:58;;;;;;;3.25;1.60;;;;;;;10.77;100.00;100140.91;5025604;28;20044;-78
2022/10/29 02:24:24;;;;;;;1.80;1.70;;;;;;;10.83;100.00;100134.75;5010704;28;20497;-80
2022/10/29 02:26:51;;;;;;;7.18;2.45;;;;;;;10.91;100.00;100125.72;5025850;28;20045;-77
2022/10/29 02:29:17;;;;;;;2.03;1.77;;;;;;;10.92;100.00;100125.50;5025500;28;20037;-78
2022/10/29 02:31:42;;;;;;;6.50;1.63;;;;;;;10.94;100.00;100120.78;5024083;28;20030;-77
2022/10/29 02:34:08;;;;;;;6.88;2.13;;;;;;;10.95;100.00;100108.16;5026276;28;20064;-80
2022/10/29 02:36:33;;;;;;;3.75;2.13;;;;;;;10.94;100.00;100118.09;5025783;28;20061;-79
2022/10/29 02:38:59;;;;;;;3.15;2.13;;;;;;;10.93;100.00;100113.75;4995825;28;20038;-78
2022/10/29 02:41:25;;;;;;;3.10;1.90;;;;;;;10.78;100.00;100086.09;5006915;28;20083;-77
2022/10/29 02:43:50;;;;;;;2.50;0.90;;;;;;;10.93;100.00;100102.16;5029037;28;20403;-80
2022/10/29 02:46:19;;;;;;;3.92;1.42;;;;;;;10.93;100.00;100102.16;5026085;28;20049;-78
2022/10/29 02:48:44;;;;;;;0.30;0.30;;;;;;;10.94;100.00;100093.88;5026718;28;20044;-77
2022/10/29 02:51:10;;;;;;;11.05;2.05;;;;;;;10.95;100.00;100092.84;5004228;28;20029;-77
2022/10/29 02:53:36;;;;;;;8.60;1.88;;;;;;;10.92;100.00;100078.94;4995401;28;20124;-78
2022/10/29 02:56:03;;;;;;;2.90;1.52;;;;;;;10.90;100.00;100079.16;4992970;28;20132;-78
2022/10/29 02:58:28;;;;;;;6.07;1.63;;;;;;;10.90;100.00;100084.53;4988270;28;20033;-78
2022/10/29 03:00:54;;;;;;;7.72;1.83;;;;;;;10.89;100.00;100074.78;5019505;28;20032;-80
2022/10/29 03:03:20;;;;;;;2.05;0.98;;;;;;;10.89;100.00;100072.09;4988739;28;20554;-78
2022/10/29 03:05:45;;;;;;;1.80;1.13;;;;;;;10.87;100.00;100067.94;5011199;28;20033;-76
2022/10/29 03:08:11;;;;;;;0.50;0.50;;;;;;;10.91;100.00;100056.59;5026443;28;20482;-78
2022/10/29 03:10:37;;;;;;;3.55;1.25;;;;;;;10.85;100.00;100035.03;5023834;28;20106;-77
2022/10/29 03:13:02;;;;;;;6.07;1.23;;;;;;;10.90;100.00;100038.81;5021473;28;20103;-78
2022/10/29 03:15:28;;;;;;;5.40;1.50;;;;;;;10.87;100.00;100039.19;5024527;28;20494;-78
2022/10/29 03:17:54;;;;;;;1.05;0.70;;;;;;;10.87;100.00;100024.91;4988832;28;20463;-80
2022/10/29 03:20:19;;;;;;;1.75;1.17;;;;;;;10.85;100.00;100019.75;5003706;28;20048;-77
2022/10/29 03:22:45;;;;;;;7.93;1.25;;;;;;;10.85;100.00;100017.06;5008525;28;20025;-79
2022/10/29 03:25:10;;;;;;;4.35;1.25;;;;;;;10.81;100.00;100005.03;5023777;28;20100;-76
2022/10/29 03:27:43;;;;;;;5.15;1.60;;;;;;;10.83;100.00;100010.22;4987683;28;20033;-80
2022/10/29 03:30:14;;;;;;;2.65;1.17;;;;;;;10.79;100.00;99997.13;4987334;28;20038;-79
2022/10/29 03:32:41;;;;;;;6.13;1.13;;;;;;;10.79;100.00;99994.44;5016945;28;20029;-78
2022/10/29 03:35:11;;;;;;;5.80;1.48;;;;;;;10.82;100.00;99992.41;5026506;28;20472;-77
2022/10/29 03:37:36;;;;;;;5.97;1.45;;;;;;;10.79;100.00;99989.06;5021524;28;20134;-78
2022/10/29 03:40:03;;;;;;;6.45;1.55;;;;;;;10.67;100.00;99954.88;5008377;28;20391;-77
2022/10/29 03:42:30;;;;;;;4.40;1.35;;;;;;;10.81;100.00;99967.38;5025486;28;20032;-77
2022/10/29 03:44:59;;;;;;;8.70;1.30;;;;;;;10.82;100.00;99970.88;5025577;28;20550;-78
2022/10/29 03:47:26;;;;;;;5.72;1.60;;;;;;;10.71;100.00;99954.25;4990309;28;20052;-78
2022/10/29 03:49:52;;;;;;;0.90;0.88;;;;;;;10.81;100.00;99955.78;4991451;28;20029;-78
2022/10/29 03:52:18;;;;;;;0.82;0.57;;;;;;;10.72;100.00;99923.69;5025941;28;20043;-79
2022/10/29 03:54:44;;;;;;;3.20;0.75;;;;;;;10.78;100.00;99935.50;5027009;28;20467;-78
2022/10/29 03:57:09;;;;;;;11.55;2.10;;;;;;;10.82;100.00;99941.31;5058893;28;20075;-77
2022/10/29 03:59:35;;;;;;;3.63;1.40;;;;;;;10.75;100.00;99934.03;4986654;28;20041;-77
2022/10/29 04:02:00;;;;;;;6.80;1.20;;;;;;;10.70;100.00;99924.91;5022292;28;20031;-78
2022/10/29 04:04:26;;;;;;;7.30;1.42;;;;;;;10.76;100.00;99916.03;5025449;28;20033;-77
2022/10/29 04:06:52;;;;;;;7.53;1.23;;;;;;;10.92;100.00;99917.56;5024831;28;20064;-79
2022/10/29 04:09:17;;;;;;;8.40;1.70;;;;;;;11.10;100.00;99917.06;5018572;28;20036;-79
2022/10/29 04:11:43;;;;;;;10.38;2.20;;;;;;;11.18;100.00;99906.13;5003848;28;20033;-78
2022/10/29 04:14:08;;;;;;;6.68;1.80;;;;;;;11.20;100.00;99898.69;5004297;28;20021;-79
2022/10/29 04:16:34;;;;;;;13.68;3.10;;;;;;;11.23;100.00;99895.59;5021780;28;20037;-78
2022/10/29 04:19:00;;;;;;;5.15;0.90;;;;;;;11.28;100.00;99890.44;4992321;28;20103;-78
2022/10/29 04:21:25;;;;;;;7.90;1.75;;;;;;;11.34;100.00;99894.16;5007516;28;20112;-78
2022/10/29 04:23:51;;;;;;;8.75;1.77;;;;;;;11.30;100.00;99869.53;5020897;28;20065;-79
2022/10/29 04:26:17;;;;;;;9.02;1.88;;;;;;;11.39;100.00;99878.25;5006226;28;20480;-79
2022/10/29 04:28:42;;;;;;;4.53;1.65;;;;;;;11.36;100.00;99874.09;5025188;28;20130;-77
2022/10/29 04:31:12;;;;;;;2.08;1.38;;;;;;;11.43;100.00;99863.34;5007220;28;20041;-77
2022/10/29 04:33:37;;;;;;;1.63;0.90;;;;;;;11.29;100.00;99827.50;5038751;28;20419;-79
2022/10/29 04:36:03;;;;;;;5.18;2.13;;;;;;;11.56;100.00;99854.47;5022682;28;20029;-77
2022/10/29 04:38:29;;;;;;;2.33;1.30;;;;;;;11.59;100.00;99854.06;5027563;28;20429;-77
2022/10/29 04:40:59;;;;;;;8.95;2.35;;;;;;;11.64;100.00;99855.13;5024580;28;20042;-77
2022/10/29 04:43:25;;;;;;;6.07;1.63;;;;;;;11.53;100.00;99834.16;5004778;28;20051;-77
2022/10/29 04:45:55;;;;;;;6.60;1.88;;;;;;;11.62;100.00;99856.34;5016568;28;20057;-78
2022/10/29 04:48:22;;;;;;;6.75;1.52;;;;;;;11.55;100.00;99842.03;5004720;28;20491;-78
2022/10/29 04:50:49;;;;;;;6.50;1.40;;;;;;;11.54;100.00;99843.09;5008134;28;20034;-77
2022/10/29 04:53:15;;;;;;;1.52;0.98;;;;;;;11.55;100.00;99842.03;5025145;28;20095;-79
2022/10/29 04:55:41;;;;;;;5.03;1.45;;;;;;;11.51;100.00;99843.47;5024522;28;20030;-78
2022/10/29 04:58:11;;;;;;;5.50;1.70;;;;;;;11.38;100.00;99815.53;5002507;28;20041;-79
2022/10/29 05:00:36;;;;;;;1.23;0.93;;;;;;;11.44;100.00;99822.78;5041584;28;20040;-78
2022/10/29 05:03:02;;;;;;;7.43;1.65;;;;;;;11.39;100.00;99816.34;4989808;28;20029;-79
2022/10/29 05:05:28;;;;;;;2.47;1.25;;;;;;;11.40;100.00;99818.00;4986331;28;20055;-78
2022/10/29 05:08:01;;;;;;;0.30;0.30;;;;;;;11.35;100.00;99813.25;5019922;28;20052;-81
2022/10/29 05:10:28;;;;;;;;;;;;;;;11.38;100.00;99814.69;5006466;28;20483;-82
2022/10/29 05:13:02;;;;;;;0.30;0.30;;;;;;;11.30;100.00;99802.25;5025041;28;19920;-78
2022/10/29 05:15:28;;;;;;;0.40;0.40;;;;;;;11.38;100.00;99815.53;4990903;28;20033;-78
2022/10/29 05:17:55;;;;;;;0.40;0.40;;;;;;;11.39;100.00;99810.97;5021444;28;20026;-79
2022/10/29 05:20:21;;;;;;;0.50;0.40;;;;;;;11.43;100.00;99807.66;5021019;28;20499;-80
2022/10/29 05:22:47;;;;;;;1.35;0.65;;;;;;;11.46;100.00;99803.72;5052100;28;20032;-79
2022/10/29 05:25:13;;;;;;;0.40;0.40;;;;;;;11.47;100.00;99791.09;5009131;28;20029;-80
2022/10/29 05:27:39;;;;;;;0.30;0.30;;;;;;;11.51;100.00;99795.03;4985562;28;20127;-80
2022/10/29 05:30:05;;;;;;;0.80;0.70;;;;;;;11.51;100.00;99787.78;5007455;28;20095;-80
2022/10/29 05:32:31;;;;;;;0.30;0.30;;;;;;;11.48;100.00;99788.19;5023775;28;20037;-81
2022/10/29 05:34:56;;;;;;;0.30;0.30;;;;;;;11.45;100.00;99777.81;5004202;28;20049;-80
2022/10/29 05:37:26;;;;;;;0.30;0.30;;;;;;;11.47;100.00;99775.78;5021446;28;20500;-81
2022/10/29 05:39:55;;;;;;;0.57;0.50;;;;;;;11.53;100.00;99774.13;5009217;28;20116;-83
2022/10/29 05:42:21;;;;;;;2.08;0.82;;;;;;;11.55;100.00;99762.09;5007895;28;20034;-80
2022/10/29 05:44:46;;;;;;;0.30;0.30;;;;;;;11.58;100.00;99768.94;5007806;28;20098;-78
2022/10/29 05:47:12;;;;;;;0.38;0.38;;;;;;;11.60;100.00;99766.88;4991039;28;20141;-79
2022/10/29 05:49:38;;;;;;;0.30;0.30;;;;;;;11.61;100.00;99761.25;4986117;28;20115;-80
2022/10/29 05:52:03;;;;;;;3.40;0.93;;;;;;;11.64;100.00;99754.63;5003606;28;20361;-83
2022/10/29 05:54:29;;;;;;;0.70;0.50;;;;;;;11.70;100.00;99755.69;5007964;28;20552;-81
2022/10/29 05:56:57;;;;;;;0.30;0.30;;;;;;;11.62;100.00;99748.66;5030338;28;20041;-82
2022/10/29 05:59:22;;;;;;;0.35;0.35;;;;;;;11.70;100.00;99761.09;5011176;28;20412;-82
2022/10/29 06:01:48;;;;;;;8.23;0.73;;;;;;;11.65;100.00;99745.53;5005684;28;20052;-84
2022/10/29 06:04:14;;;;;;;0.32;0.32;;;;;;;11.70;100.00;99750.31;5024508;28;20037;-81
2022/10/29 06:06:39;;;;;;;0.85;0.73;;;;;;;11.62;100.00;99732.50;4996442;28;20044;-79
2022/10/29 06:09:05;;;;;;;0.30;0.30;;;;;;;11.65;100.00;99738.28;5020179;28;20025;-81
2022/10/29 06:11:31;;;;;;;0.45;0.45;;;;;;;11.63;100.00;99737.66;5020121;28;20498;-80
2022/10/29 06:13:56;;;;;;;0.30;0.30;;;;;;;11.63;100.00;99740.34;5020812;28;20041;-80
2022/10/29 06:16:22;;;;;;;0.30;0.30;;;;;;;11.53;100.00;99721.09;5026422;28;20214;-79
2022/10/29 06:18:48;;;;;;;0.40;0.40;;;;;;;11.56;100.00;99739.50;4992875;28;20029;-80
2022/10/29 06:21:13;;;;;;;0.35;0.35;;;;;;;11.44;100.00;99719.66;4992880;28;20459;-79
2022/10/29 06:23:39;;;;;;;0.30;0.30;;;;;;;11.49;100.00;99721.75;5003553;28;20068;-81
2022/10/29 06:26:04;;;;;;;0.30;0.30;;;;;;;11.36;100.00;99696.47;5026850;28;20102;-80
2022/10/29 06:28:30;;;;;;;0.30;0.30;;;;;;;11.40;100.00;99686.09;5007679;28;20212;-80
2022/10/29 06:30:56;;;;;;;0.35;0.35;;;;;;;11.46;100.00;99693.38;5025414;28;20026;-81
2022/10/29 06:33:22;;;;;;;0.30;0.30;;;;;;;11.38;100.00;99680.94;5011844;28;20034;-80
2022/10/29 06:35:47;;;;;;;0.30;0.30;;;;;;;11.39;100.00;99685.28;4993844;28;20037;-79
2022/10/29 06:38:13;;;;;;;0.30;0.30;;;;;;;11.39;100.00;99687.97;4991323;28;20462;-80
2022/10/29 06:40:40;;;;;;;0.30;0.30;;;;;;;11.39;100.00;99673.69;5028301;28;20124;-80
2022/10/29 06:43:08;;;;;;;0.30;0.30;;;;;;;11.37;100.00;99665.81;5026470;28;20046;-81
2022/10/29 06:45:34;;;;;;;0.40;0.40;;;;;;;11.35;100.00;99656.28;5027417;28;20068;-79
2022/10/29 06:48:00;;;;;;;0.30;0.30;;;;;;;11.33;100.00;99640.38;5019948;28;20082;-80
2022/10/29 06:50:26;;;;;;;0.30;0.30;;;;;;;11.16;100.00;99623.78;5010559;28;20041;-79
2022/10/29 06:52:54;;;;;;;1.27;0.50;;;;;;;11.19;100.00;99630.63;5011259;28;20029;-79
2022/10/29 06:55:19;;;;;;;0.30;0.30;;;;;;;11.16;100.00;99623.78;5027280;28;20025;-80
2022/10/29 06:57:45;;;;;;;0.30;0.30;;;;;;;11.12;100.00;99613.69;5012844;28;20029;-80
2022/10/29 07:00:11;;;;;;;0.30;0.30;;;;;;;10.99;100.00;99592.97;5029702;28;20036;-79
2022/10/29 07:02:37;;;;;;;0.30;0.30;;;;;;;11.02;100.00;99575.59;4995051;28;20037;-79
2022/10/29 07:05:02;;;;;;;0.40;0.40;;;;;;;11.05;100.00;99577.88;5009998;28;20064;-79
2022/10/29 07:07:28;;;;;;;0.40;0.40;;;;;;;11.05;100.00;99561.75;4993696;28;20465;-79
2022/10/29 07:09:54;;;;;;;0.30;0.30;;;;;;;11.12;100.00;99573.31;5010662;28;20061;-80
2022/10/29 07:12:19;;;;;;;0.50;0.50;;;;;;;11.20;100.00;99571.25;5024743;28;20131;-80
2022/10/29 07:14:45;;;;;;;0.30;0.30;;;;;;;11.25;100.00;99524.88;5027534;28;20034;-79
2022/10/29 07:17:11;;;;;;;4.18;0.98;;;;;;;11.29;100.00;99557.56;5011724;28;20391;-80
2022/10/29 07:19:36;;;;;;;2.05;1.10;;;;;;;11.31;100.00;99544.72;4994087;28;20037;-80
2022/10/29 07:22:02;;;;;;;1.85;0.68;;;;;;;11.30;100.00;99533.16;5008047;28;20037;-80
2022/10/29 07:24:27;;;;;;;0.40;0.40;;;;;;;11.35;100.00;99535.19;5023833;28;20036;-79
2022/10/29 07:26:53;;;;;;;1.75;0.82;;;;;;;11.31;100.00;99525.91;5009146;28;20044;-80
2022/10/29 07:29:19;;;;;;;2.13;0.93;;;;;;;11.30;100.00;99508.94;4990910;28;20179;-79
2022/10/29 07:31:44;;;;;;;2.20;0.75;;;;;;;11.30;100.00;99517.00;5009910;28;20076;-81
2022/10/29 07:34:11;;;;;;;1.10;0.60;;;;;;;11.28;100.00;99513.69;5024736;28;20033;-80
2022/10/29 07:36:36;;;;;;;0.52;0.52;;;;;;;11.25;100.00;99503.34;4993002;28;21034;-80
2022/10/29 07:39:02;;;;;;;1.00;0.50;;;;;;;11.23;100.00;99483.91;5020181;28;20036;-80
2022/10/29 07:41:28;;;;;;;0.73;0.70;;;;;;;11.23;100.00;99476.63;5025339;28;20552;-80
2022/10/29 07:43:54;;;;;;;0.30;0.30;;;;;;;11.28;100.00;99475.19;5019753;28;20037;-80
2022/10/29 07:46:19;;;;;;;2.33;0.70;;;;;;;11.23;100.00;99448.91;5004607;28;20041;-80
2022/10/29 07:48:45;;;;;;;2.78;1.10;;;;;;;11.30;100.00;99447.03;5026249;28;20060;-79
2022/10/29 07:51:11;;;;;;;1.63;0.85;;;;;;;11.32;100.00;99436.03;5021838;28;20083;-79
2022/10/29 07:53:37;;;;;;;1.45;1.02;;;;;;;11.28;100.00;99414.13;5027448;28;20029;-80
2022/10/29 07:56:03;;;;;;;0.40;0.40;;;;;;;11.34;100.00;99432.09;5007821;28;20041;-79
2022/10/29 07:58:28;;;;;;;1.55;0.52;;;;;;;11.35;100.00;99422.16;5006598;28;20124;-79
2022/10/29 08:00:54;;;;;;;0.98;0.70;;;;;;;11.34;100.00;99428.59;5009270;28;20033;-79
2022/10/29 08:03:19;;;;;;;1.17;0.95;;;;;;;11.35;100.00;99422.16;4988377;28;20036;-80
2022/10/29 08:05:48;;;;;;;2.80;0.80;;;;;;;11.40;100.00;99408.88;5028355;28;20033;-79
2022/10/29 08:08:13;;;;;;;0.73;0.50;;;;;;;11.36;100.00;99408.50;5007383;28;20135;-79
2022/10/29 08:10:39;;;;;;;0.50;0.50;;;;;;;11.39;100.00;99380.34;5009274;28;20499;-79
2022/10/29 08:13:05;;;;;;;0.45;0.45;;;;;;;11.42;100.00;99380.72;5002361;28;20539;-79
2022/10/29 08:15:32;;;;;;;0.50;0.50;;;;;;;11.37;100.00;99356.31;5012311;28;20032;-79
2022/10/29 08:17:58;;;;;;;1.58;0.80;;;;;;;11.38;100.00;99341.84;5023692;28;20111;-81
2022/10/29 08:20:26;;;;;;;0.65;0.60;;;;;;;11.43;100.00;99347.41;5022827;28;20044;-81
2022/10/29 08:22:51;;;;;;;2.22;0.68;;;;;;;11.31;100.00;99327.59;5009168;28;20048;-78
2022/10/29 08:25:17;;;;;;;1.10;1.00;;;;;;;11.29;100.00;99292.00;5019149;28;20467;-80
2022/10/29 08:27:43;;;;;;;0.60;0.60;;;;;;;11.40;100.00;99320.06;5010785;28;20042;-79
2022/10/29 08:30:11;;;;;;;1.85;0.60;;;;;;;11.44;100.00;99315.91;5029476;28;20036;-79
2022/10/29 08:32:45;;;;;;;1.10;0.68;;;;;;;11.49;100.00;99309.91;4989505;28;20045;-81
2022/10/29 08:35:11;;;;;;;2.15;1.27;;;;;;;11.51;100.00;99233.28;5009617;28;20087;-79
2022/10/29 08:37:41;;;;;;;0.68;0.68;;;;;;;11.55;100.00;99314.41;5009578;28;20109;-79
2022/10/29 08:40:12;;;;;;;1.02;0.50;;;;;;;11.54;100.00;99289.34;5027532;28;20459;-79
2022/10/29 08:43:04;;;;;;;0.60;0.60;;;;;;;11.57;100.00;99277.31;5011052;28;20037;-79
2022/10/29 08:45:39;;;;;;;1.20;1.00;;;;;;;11.58;100.00;99287.03;4994097;28;20037;-79
2022/10/29 08:48:04;;;;;;;0.50;0.50;;;;;;;11.57;100.00;99301.56;5012367;28;20380;-81
2022/10/29 08:50:39;;;;;;;0.55;0.55;;;;;;;11.60;100.00;99276.88;5012701;28;20052;-87
2022/10/29 08:53:15;;;;;;;0.43;0.43;;;;;;;11.62;100.00;99299.03;4997838;28;20044;-88
2022/10/29 08:55:41;;;;;;;0.40;0.40;;;;;;;11.62;100.00;99296.34;5010346;28;20037;-87
2022/10/29 08:58:18;;;;;;;0.50;0.50;;;;;;;11.62;100.00;99272.13;5012536;28;20025;-87
2022/10/29 09:00:43;;;;;;;0.77;0.77;;;;;;;11.62;100.00;99281.00;5008466;28;20040;-88
2022/10/29 09:03:12;;;;;;;0.52;0.52;;;;;;;11.66;100.00;99273.31;5014839;28;20177;-87
2022/10/29 09:05:56;;;;;;;0.60;0.60;;;;;;;11.71;100.00;99276.16;5011645;28;20451;-88
2022/10/29 09:09:03;;;;;;;0.60;0.60;;;;;;;11.74;100.00;99269.53;5043027;28;20033;-88
2022/10/29 09:11:48;;;;;;;1.02;0.90;;;;;;;11.77;100.00;99244.84;4979713;28;20053;-88
2022/10/29 09:14:31;;;;;;;0.80;0.80;;;;;;;11.83;100.00;99239.41;5007906;28;20069;-90
2022/10/29 09:17:17;;;;;;;0.40;0.40;;;;;;;11.98;100.00;99211.31;5010308;28;20099;-86
2022/10/29 09:20:01;;;;;;;0.60;0.60;;;;;;;12.07;100.00;99208.13;5006791;28;20053;-89
2022/10/29 09:22:46;;;;;;;0.50;0.50;;;;;;;12.10;100.00;99174.53;5016134;28;20152;-86
2022/10/29 09:25:39;;;;;;;0.65;0.65;;;;;;;11.87;100.00;99165.22;4992556;28;20045;-86
2022/10/29 09:28:26;;;;;;;1.02;0.60;;;;;;;11.98;100.00;99200.53;5024674;28;20045;-86
2022/10/29 09:31:15;;;;;;;0.80;0.70;;;;;;;11.95;100.00;99187.53;5009848;28;20065;-89
2022/10/29 09:33:43;;;;;;;0.55;0.55;;;;;;;11.78;100.00;99154.94;5028643;28;20112;-86
2022/10/29 09:36:28;;;;;;;0.40;0.40;;;;;;;11.88;100.00;99184.88;5028738;28;20045;-88
2022/10/29 09:39:25;;;;;;;0.40;0.40;;;;;;;11.91;100.00;99206.03;5014696;28;20407;-84
2022/10/29 09:41:53;;;;;;;0.98;0.70;;;;;;;11.83;100.00;99168.56;5015160;28;20460;-86
2022/10/29 09:44:57;;;;;;;1.38;0.60;;;;;;;11.79;100.00;99157.41;5030972;28;20595;-85
2022/10/29 09:47:23;;;;;;;0.50;0.50;;;;;;;11.83;100.00;99203.59;5012082;28;20061;-85
2022/10/29 09:50:10;;;;;;;0.30;0.30;;;;;;;11.82;100.00;99212.69;5015493;28;20112;-86
2022/10/29 09:52:39;;;;;;;0.40;0.40;;;;;;;11.62;100.00;99178.69;5028978;28;20116;-85
2022/10/29 09:55:08;;;;;;;0.40;0.40;;;;;;;11.80;100.00;99196.78;5012825;28;20041;-86
2022/10/29 09:57:36;;;;;;;0.40;0.40;;;;;;;11.59;100.00;99156.78;5012598;28;20045;-88
2022/10/29 10:00:05;;;;;;;0.40;0.40;;;;;;;11.81;100.00;99173.34;4994049;28;20030;-83
2022/10/29 10:02:31;;;;;;;0.40;0.40;;;;;;;12.05;100.00;99202.13;4993871;28;20034;-82
2022/10/29 10:05:03;;;;;;;0.30;0.30;;;;;;;12.16;100.00;99194.34;5030187;28;20044;-84
2022/10/29 10:07:31;;;;;;;0.47;0.47;;;;;;;12.18;100.00;99174.22;5030251;28;20118;-84
2022/10/29 10:10:02;;;;;;;0.40;0.40;;;;;;;12.56;100.00;99202.78;5015800;28;20610;-84
2022/10/29 10:12:40;;;;;;;0.40;0.40;;;;;;;12.87;100.00;99201.75;5009699;28;20033;-86
2022/10/29 10:15:17;;;;;;;0.40;0.40;;;;;;;13.18;100.00;99200.69;5012078;28;20065;-85
2022/10/29 10:18:15;;;;;;;0.40;0.40;;;;;;;13.44;100.00;99192.41;5012021;28;20037;-88
2022/10/29 10:21:00;;;;;;;0.40;0.40;;;;;;;13.72;100.00;99216.06;5015128;28;20078;-86
2022/10/29 10:23:29;;;;;;;0.30;0.30;;;;;;;13.66;100.00;99200.78;4996136;28;20482;-87
2022/10/29 10:25:58;;;;;;;0.30;0.30;;;;;;;13.75;100.00;99193.97;4998729;28;20484;-86
2022/10/29 10:28:29;;;;;;;0.30;0.30;;;;;;;13.81;100.00;99187.63;5009587;28;20042;-87
2022/10/29 10:31:09;;;;;;;0.57;0.57;;;;;;;14.04;100.00;99187.59;5009801;28;20060;-87
2022/10/29 10:33:52;;;;;;;0.30;0.30;;;;;;;14.46;100.00;99190.13;4993144;28;20048;-86
2022/10/29 10:36:21;;;;;;;0.47;0.47;;;;;;;14.94;100.00;99186.19;5009017;28;20034;-86
2022/10/29 10:38:50;;;;;;;0.30;0.30;;;;;;;15.42;100.00;99181.31;5009426;28;20022;-88
2022/10/29 10:41:23;;;;;;;0.40;0.40;;;;;;;16.26;100.00;99189.38;5009891;28;20463;-89
2022/10/29 10:43:50;;;;;;;;;;;;;;;17.62;100.00;99175.81;5014851;28;20352;-85
2022/10/29 10:46:25;;;;;;;0.80;0.80;;;;;;;18.86;100.00;99167.22;5008693;28;19958;-86
2022/10/29 10:49:20;;;;;;;0.60;0.60;;;;;;;19.25;100.00;99173.00;5007783;28;20088;-86
2022/10/29 10:51:50;;;;;;;0.60;0.60;;;;;;;19.11;100.00;99169.19;5006540;28;20038;-87
2022/10/29 10:54:32;;;;;;;0.57;0.57;;;;;;;18.94;100.00;99152.25;5013231;28;20029;-86
2022/10/29 10:57:04;;;;;;;0.40;0.40;;;;;;;18.13;100.00;99162.59;4991698;28;20033;-87
2022/10/29 10:59:44;;;;;;;0.40;0.40;;;;;;;17.71;100.00;99165.31;5028690;28;20052;-86
2022/10/29 11:02:51;;;;;;;0.40;0.40;;;;;;;17.98;100.00;99170.66;4995485;28;20447;-86
2022/10/29 11:05:18;;;;;;;0.40;0.40;;;;;;;17.90;100.00;99169.25;5045341;28;20491;-87
2022/10/29 11:08:03;;;;;;;0.40;0.40;;;;;;;17.45;100.00;99175.16;5007145;28;20033;-86
2022/10/29 11:11:05;;;;;;;0.40;0.40;;;;;;;17.17;100.00;99187.13;4999209;28;20032;-86
2022/10/29 11:13:31;;;;;;;;;;;;;;;17.04;100.00;99175.63;5005502;28;20038;-87
2022/10/29 11:16:17;;;;;;;0.30;0.30;;;;;;;16.87;100.00;99183.06;4997199;28;19913;-86
2022/10/29 11:18:55;;;;;;;0.30;0.30;;;;;;;16.90;100.00;99177.09;5039539;28;20041;-88
2022/10/29 11:21:33;;;;;;;0.40;0.40;;;;;;;17.09;100.00;99191.97;4992148;28;20215;-88
2022/10/29 11:24:08;;;;;;;0.30;0.30;;;;;;;17.14;100.00;99181.13;5024099;28;20045;-90
2022/10/29 11:26:34;;;;;;;0.35;0.35;;;;;;;17.22;100.00;99179.03;5010857;28;20349;-87
2022/10/29 11:29:13;;;;;;;0.50;0.50;;;;;;;17.55;100.00;99177.97;5004814;28;20464;-87
2022/10/29 11:31:48;;;;;;;0.40;0.40;;;;;;;17.84;100.00;99156.72;5027718;28;20033;-87
2022/10/29 11:34:20;;;;;;;0.70;0.70;;;;;;;19.04;100.00;99177.59;4989992;28;20022;-86
2022/10/29 11:37:28;;;;;;;0.50;0.50;;;;;;;19.44;100.00;99153.38;4997318;28;20387;-87
2022/10/29 11:39:58;;;;;;;0.47;0.47;;;;;;;19.46;100.00;99192.09;5001835;28;20125;-86